Seattle, Washington
Current Conditions -  °F | °C
As of 7:53 AM on Friday 19 Dec 2014 (Local Time) from KBFI Reporting Station
Light Rain Light Rain  
Wind Chill: 49°   Ceiling: 3700
Heat Index: 49°   Visibility: 10mi
Dew Point: 42°   Wind: 0mph
Humidity: 77%   Direction: NA
Pressure: 29.88"   Gusts: NA
Location:  47.6°N, 122.32°W
Report Text: KBFI 191553Z 00000KT 10SM -RA OVC037 09/06 A2988 RMK AO2 RAB44 SLP119 P0001 T00940056
Loading
Personal Weather Stations






























Interactive Weather Map New forecast layout! Learn more

10-Day Weather Forecast

Advertisements
Track Severe Weather on mobile